sensor_id;sensor_type;location;lat;lon;timestamp;temperature;humidity
15156;DHT22;7678;50.058;8.306;2023-10-19T00:00:14;10.20;99.90
15156;DHT22;7678;50.058;8.306;2023-10-19T00:02:51;10.20;99.90
15156;DHT22;7678;50.058;8.306;2023-10-19T00:05:26;10.20;99.90
15156;DHT22;7678;50.058;8.306;2023-10-19T00:07:57;10.20;99.90
15156;DHT22;7678;50.058;8.306;2023-10-19T00:10:27;10.20;99.90
15156;DHT22;7678;50.058;8.306;2023-10-19T00:13:03;10.20;99.90
15156;DHT22;7678;50.058;8.306;2023-10-19T00:15:32;10.30;99.90
15156;DHT22;7678;50.058;8.306;2023-10-19T00:18:03;10.30;99.90
15156;DHT22;7678;50.058;8.306;2023-10-19T00:20:53;10.30;99.90
15156;DHT22;7678;50.058;8.306;2023-10-19T00:23:26;10.30;99.90
15156;DHT22;7678;50.058;8.306;2023-10-19T00:26:05;10.30;99.90
15156;DHT22;7678;50.058;8.306;2023-10-19T00:28:35;10.30;99.90
15156;DHT22;7678;50.058;8.306;2023-10-19T00:31:06;10.40;99.90
15156;DHT22;7678;50.058;8.306;2023-10-19T00:33:38;10.30;99.90
15156;DHT22;7678;50.058;8.306;2023-10-19T00:36:17;10.40;99.90
15156;DHT22;7678;50.058;8.306;2023-10-19T00:38:51;10.40;99.90
15156;DHT22;7678;50.058;8.306;2023-10-19T00:41:24;10.30;99.90
15156;DHT22;7678;50.058;8.306;2023-10-19T00:44:02;10.30;99.90
15156;DHT22;7678;50.058;8.306;2023-10-19T00:46:39;10.40;99.90
15156;DHT22;7678;50.058;8.306;2023-10-19T00:49:17;10.40;99.90
15156;DHT22;7678;50.058;8.306;2023-10-19T00:51:55;10.40;99.90
15156;DHT22;7678;50.058;8.306;2023-10-19T00:54:31;10.40;99.90
15156;DHT22;7678;50.058;8.306;2023-10-19T00:57:03;10.50;99.90
15156;DHT22;7678;50.058;8.306;2023-10-19T00:59:37;10.50;99.90
15156;DHT22;7678;50.058;8.306;2023-10-19T01:02:10;10.50;99.90
15156;DHT22;7678;50.058;8.306;2023-10-19T01:04:49;10.50;99.90
15156;DHT22;7678;50.058;8.306;2023-10-19T01:07:26;10.50;99.90
15156;DHT22;7678;50.058;8.306;2023-10-19T01:10:01;10.60;99.90
15156;DHT22;7678;50.058;8.306;2023-10-19T01:12:33;10.50;99.90
15156;DHT22;7678;50.058;8.306;2023-10-19T01:15:09;10.50;99.90
15156;DHT22;7678;50.058;8.306;2023-10-19T01:17:44;10.50;99.90
15156;DHT22;7678;50.058;8.306;2023-10-19T01:20:15;10.60;99.90
15156;DHT22;7678;50.058;8.306;2023-10-19T01:22:53;10.60;99.90
15156;DHT22;7678;50.058;8.306;2023-10-19T01:25:45;10.70;99.90
15156;DHT22;7678;50.058;8.306;2023-10-19T01:28:18;10.60;99.90
15156;DHT22;7678;50.058;8.306;2023-10-19T01:30:48;10.60;99.90
15156;DHT22;7678;50.058;8.306;2023-10-19T01:33:31;10.60;99.90
15156;DHT22;7678;50.058;8.306;2023-10-19T01:36:05;10.60;99.90
15156;DHT22;7678;50.058;8.306;2023-10-19T01:38:43;10.60;99.90
15156;DHT22;7678;50.058;8.306;2023-10-19T01:41:18;10.60;99.90
15156;DHT22;7678;50.058;8.306;2023-10-19T01:43:53;10.60;99.90
15156;DHT22;7678;50.058;8.306;2023-10-19T01:46:38;10.70;99.90
15156;DHT22;7678;50.058;8.306;2023-10-19T01:49:12;10.70;99.90
15156;DHT22;7678;50.058;8.306;2023-10-19T01:51:51;10.70;99.90
15156;DHT22;7678;50.058;8.306;2023-10-19T01:54:25;10.70;99.90
15156;DHT22;7678;50.058;8.306;2023-10-19T01:56:55;10.70;99.90
15156;DHT22;7678;50.058;8.306;2023-10-19T01:59:27;10.70;99.90
15156;DHT22;7678;50.058;8.306;2023-10-19T02:02:04;10.70;99.90
15156;DHT22;7678;50.058;8.306;2023-10-19T02:04:34;10.70;99.90
15156;DHT22;7678;50.058;8.306;2023-10-19T02:07:08;10.70;99.90
15156;DHT22;7678;50.058;8.306;2023-10-19T02:09:46;10.70;99.90
15156;DHT22;7678;50.058;8.306;2023-10-19T02:18:52;10.80;99.90
15156;DHT22;7678;50.058;8.306;2023-10-19T02:21:20;10.80;99.90
15156;DHT22;7678;50.058;8.306;2023-10-19T02:23:53;10.80;99.90
15156;DHT22;7678;50.058;8.306;2023-10-19T02:26:23;10.70;99.90
15156;DHT22;7678;50.058;8.306;2023-10-19T02:28:59;10.70;99.90
15156;DHT22;7678;50.058;8.306;2023-10-19T02:31:29;10.80;99.90
15156;DHT22;7678;50.058;8.306;2023-10-19T02:34:18;10.80;99.90
15156;DHT22;7678;50.058;8.306;2023-10-19T02:36:49;10.80;99.90
15156;DHT22;7678;50.058;8.306;2023-10-19T02:39:18;10.70;99.90
15156;DHT22;7678;50.058;8.306;2023-10-19T02:41:55;10.80;99.90
15156;DHT22;7678;50.058;8.306;2023-10-19T02:44:26;10.70;99.90
15156;DHT22;7678;50.058;8.306;2023-10-19T02:46:56;10.80;99.90
15156;DHT22;7678;50.058;8.306;2023-10-19T02:49:27;10.80;99.90
15156;DHT22;7678;50.058;8.306;2023-10-19T02:51:57;10.80;99.90
15156;DHT22;7678;50.058;8.306;2023-10-19T02:54:35;10.80;99.90
15156;DHT22;7678;50.058;8.306;2023-10-19T02:57:11;10.80;99.90
15156;DHT22;7678;50.058;8.306;2023-10-19T02:59:43;10.80;99.90
15156;DHT22;7678;50.058;8.306;2023-10-19T03:02:14;10.80;99.90
15156;DHT22;7678;50.058;8.306;2023-10-19T03:04:44;10.80;99.90
15156;DHT22;7678;50.058;8.306;2023-10-19T03:07:16;10.80;99.90
15156;DHT22;7678;50.058;8.306;2023-10-19T03:09:53;10.80;99.90
15156;DHT22;7678;50.058;8.306;2023-10-19T03:12:25;10.80;99.90
15156;DHT22;7678;50.058;8.306;2023-10-19T03:14:54;10.90;99.90
15156;DHT22;7678;50.058;8.306;2023-10-19T03:17:28;10.80;99.90
15156;DHT22;7678;50.058;8.306;2023-10-19T03:19:57;10.80;99.90
15156;DHT22;7678;50.058;8.306;2023-10-19T03:22:33;10.80;99.90
15156;DHT22;7678;50.058;8.306;2023-10-19T03:25:02;10.80;99.90
15156;DHT22;7678;50.058;8.306;2023-10-19T03:28:01;10.90;99.90
15156;DHT22;7678;50.058;8.306;2023-10-19T03:30:35;10.90;99.90
15156;DHT22;7678;50.058;8.306;2023-10-19T03:33:09;10.90;99.90
15156;DHT22;7678;50.058;8.306;2023-10-19T03:35:42;10.90;99.90
15156;DHT22;7678;50.058;8.306;2023-10-19T03:38:10;10.90;99.90
15156;DHT22;7678;50.058;8.306;2023-10-19T03:40:45;10.90;99.90
15156;DHT22;7678;50.058;8.306;2023-10-19T03:43:27;10.90;99.90
15156;DHT22;7678;50.058;8.306;2023-10-19T03:45:58;10.90;99.90
15156;DHT22;7678;50.058;8.306;2023-10-19T03:48:41;10.90;99.90
15156;DHT22;7678;50.058;8.306;2023-10-19T03:51:13;10.90;99.90
15156;DHT22;7678;50.058;8.306;2023-10-19T03:53:42;10.90;99.90
15156;DHT22;7678;50.058;8.306;2023-10-19T03:56:31;10.90;99.90
15156;DHT22;7678;50.058;8.306;2023-10-19T03:59:17;10.90;99.90
15156;DHT22;7678;50.058;8.306;2023-10-19T04:01:46;10.90;99.90
15156;DHT22;7678;50.058;8.306;2023-10-19T04:04:17;10.90;99.90
15156;DHT22;7678;50.058;8.306;2023-10-19T04:06:54;10.90;99.90
15156;DHT22;7678;50.058;8.306;2023-10-19T04:09:25;10.90;99.90
15156;DHT22;7678;50.058;8.306;2023-10-19T04:11:57;10.90;99.90
15156;DHT22;7678;50.058;8.306;2023-10-19T04:14:39;11.00;99.90
15156;DHT22;7678;50.058;8.306;2023-10-19T04:17:08;11.00;99.90
15156;DHT22;7678;50.058;8.306;2023-10-19T04:19:39;11.00;99.90
15156;DHT22;7678;50.058;8.306;2023-10-19T04:22:11;11.00;99.90
15156;DHT22;7678;50.058;8.306;2023-10-19T04:24:50;11.00;99.90
15156;DHT22;7678;50.058;8.306;2023-10-19T04:27:19;11.00;99.90
15156;DHT22;7678;50.058;8.306;2023-10-19T04:30:04;11.00;99.90
15156;DHT22;7678;50.058;8.306;2023-10-19T04:32:53;11.00;99.90
15156;DHT22;7678;50.058;8.306;2023-10-19T04:35:23;11.00;99.90
15156;DHT22;7678;50.058;8.306;2023-10-19T04:37:56;11.00;99.90
15156;DHT22;7678;50.058;8.306;2023-10-19T04:40:24;11.00;99.90
15156;DHT22;7678;50.058;8.306;2023-10-19T04:42:57;11.00;99.90
15156;DHT22;7678;50.058;8.306;2023-10-19T04:45:28;11.00;99.90
15156;DHT22;7678;50.058;8.306;2023-10-19T04:47:57;11.10;99.90
15156;DHT22;7678;50.058;8.306;2023-10-19T04:50:27;11.00;99.90
15156;DHT22;7678;50.058;8.306;2023-10-19T04:52:55;11.00;99.90
15156;DHT22;7678;50.058;8.306;2023-10-19T04:55:24;11.00;99.90
15156;DHT22;7678;50.058;8.306;2023-10-19T04:57:53;11.10;99.90
15156;DHT22;7678;50.058;8.306;2023-10-19T05:00:21;11.00;99.90
15156;DHT22;7678;50.058;8.306;2023-10-19T05:02:53;11.10;99.90
15156;DHT22;7678;50.058;8.306;2023-10-19T05:05:22;11.10;99.90
15156;DHT22;7678;50.058;8.306;2023-10-19T05:07:52;11.10;99.90
15156;DHT22;7678;50.058;8.306;2023-10-19T05:10:22;11.10;99.90
15156;DHT22;7678;50.058;8.306;2023-10-19T05:12:52;11.10;99.90
15156;DHT22;7678;50.058;8.306;2023-10-19T05:15:22;11.10;99.90
15156;DHT22;7678;50.058;8.306;2023-10-19T05:17:54;11.20;99.90
15156;DHT22;7678;50.058;8.306;2023-10-19T05:20:23;11.20;99.90
15156;DHT22;7678;50.058;8.306;2023-10-19T05:22:52;11.10;99.90
15156;DHT22;7678;50.058;8.306;2023-10-19T05:25:22;11.10;99.90
15156;DHT22;7678;50.058;8.306;2023-10-19T05:27:52;11.10;99.90
15156;DHT22;7678;50.058;8.306;2023-10-19T05:30:20;11.10;99.90
15156;DHT22;7678;50.058;8.306;2023-10-19T05:32:57;11.20;99.90
15156;DHT22;7678;50.058;8.306;2023-10-19T05:35:25;11.20;99.90
15156;DHT22;7678;50.058;8.306;2023-10-19T05:37:54;11.20;99.90
15156;DHT22;7678;50.058;8.306;2023-10-19T05:40:23;11.20;99.90
15156;DHT22;7678;50.058;8.306;2023-10-19T05:42:57;11.10;99.90
15156;DHT22;7678;50.058;8.306;2023-10-19T05:45:27;11.20;99.90
15156;DHT22;7678;50.058;8.306;2023-10-19T05:47:57;11.20;99.90
15156;DHT22;7678;50.058;8.306;2023-10-19T05:50:30;11.30;99.90
15156;DHT22;7678;50.058;8.306;2023-10-19T05:52:59;11.20;99.90
15156;DHT22;7678;50.058;8.306;2023-10-19T05:55:30;11.20;99.90
15156;DHT22;7678;50.058;8.306;2023-10-19T05:57:59;11.20;99.90
15156;DHT22;7678;50.058;8.306;2023-10-19T06:00:28;11.20;99.90
15156;DHT22;7678;50.058;8.306;2023-10-19T06:02:58;11.30;99.90
15156;DHT22;7678;50.058;8.306;2023-10-19T06:05:27;11.30;99.90
15156;DHT22;7678;50.058;8.306;2023-10-19T06:07:57;11.30;99.90
15156;DHT22;7678;50.058;8.306;2023-10-19T06:10:28;11.30;99.90
15156;DHT22;7678;50.058;8.306;2023-10-19T06:12:56;11.30;99.90
15156;DHT22;7678;50.058;8.306;2023-10-19T06:15:25;11.30;99.90
15156;DHT22;7678;50.058;8.306;2023-10-19T06:17:55;11.40;99.90
15156;DHT22;7678;50.058;8.306;2023-10-19T06:20:56;11.40;99.90
15156;DHT22;7678;50.058;8.306;2023-10-19T06:23:24;11.40;99.90
15156;DHT22;7678;50.058;8.306;2023-10-19T06:25:53;11.30;99.90
15156;DHT22;7678;50.058;8.306;2023-10-19T06:28:22;11.40;99.90
15156;DHT22;7678;50.058;8.306;2023-10-19T06:30:51;11.40;99.90
15156;DHT22;7678;50.058;8.306;2023-10-19T06:33:22;11.40;99.90
15156;DHT22;7678;50.058;8.306;2023-10-19T06:36:12;11.40;99.90
15156;DHT22;7678;50.058;8.306;2023-10-19T06:38:45;11.40;99.90
15156;DHT22;7678;50.058;8.306;2023-10-19T06:41:19;11.40;99.90
15156;DHT22;7678;50.058;8.306;2023-10-19T06:43:51;11.40;99.90
15156;DHT22;7678;50.058;8.306;2023-10-19T06:46:23;11.40;99.90
15156;DHT22;7678;50.058;8.306;2023-10-19T06:48:53;11.50;99.90
15156;DHT22;7678;50.058;8.306;2023-10-19T06:51:28;11.50;99.90
15156;DHT22;7678;50.058;8.306;2023-10-19T06:54:01;11.40;99.90
15156;DHT22;7678;50.058;8.306;2023-10-19T06:56:39;11.50;99.90
15156;DHT22;7678;50.058;8.306;2023-10-19T06:59:12;11.50;99.90
15156;DHT22;7678;50.058;8.306;2023-10-19T07:01:43;11.50;99.90
15156;DHT22;7678;50.058;8.306;2023-10-19T07:04:13;11.50;99.90
15156;DHT22;7678;50.058;8.306;2023-10-19T07:06:44;11.60;99.90
15156;DHT22;7678;50.058;8.306;2023-10-19T07:09:15;11.60;99.90
15156;DHT22;7678;50.058;8.306;2023-10-19T07:11:47;11.60;99.90
15156;DHT22;7678;50.058;8.306;2023-10-19T07:14:20;11.60;99.90
15156;DHT22;7678;50.058;8.306;2023-10-19T07:16:50;11.60;99.90
15156;DHT22;7678;50.058;8.306;2023-10-19T07:19:23;11.60;99.90
15156;DHT22;7678;50.058;8.306;2023-10-19T07:22:00;11.60;99.90
15156;DHT22;7678;50.058;8.306;2023-10-19T07:24:43;11.60;99.90
15156;DHT22;7678;50.058;8.306;2023-10-19T07:27:14;11.60;99.90
15156;DHT22;7678;50.058;8.306;2023-10-19T07:30:04;11.70;99.90
15156;DHT22;7678;50.058;8.306;2023-10-19T07:32:37;11.70;99.90
15156;DHT22;7678;50.058;8.306;2023-10-19T07:35:07;11.80;99.90
15156;DHT22;7678;50.058;8.306;2023-10-19T07:37:40;11.70;99.90
15156;DHT22;7678;50.058;8.306;2023-10-19T07:40:14;11.60;99.90
15156;DHT22;7678;50.058;8.306;2023-10-19T07:42:57;11.70;99.90
15156;DHT22;7678;50.058;8.306;2023-10-19T07:45:27;11.70;99.90
15156;DHT22;7678;50.058;8.306;2023-10-19T07:47:58;11.70;99.90
15156;DHT22;7678;50.058;8.306;2023-10-19T07:50:40;11.70;99.90
15156;DHT22;7678;50.058;8.306;2023-10-19T07:53:14;11.70;99.90
15156;DHT22;7678;50.058;8.306;2023-10-19T07:55:45;11.60;99.90
15156;DHT22;7678;50.058;8.306;2023-10-19T07:58:30;11.60;99.90
15156;DHT22;7678;50.058;8.306;2023-10-19T08:01:02;11.60;99.90
15156;DHT22;7678;50.058;8.306;2023-10-19T08:03:34;11.60;99.90
15156;DHT22;7678;50.058;8.306;2023-10-19T08:06:07;11.70;99.90
15156;DHT22;7678;50.058;8.306;2023-10-19T08:08:48;11.70;99.90
15156;DHT22;7678;50.058;8.306;2023-10-19T08:11:31;11.80;99.90
15156;DHT22;7678;50.058;8.306;2023-10-19T08:14:02;11.80;99.90
15156;DHT22;7678;50.058;8.306;2023-10-19T08:16:30;11.80;99.90
15156;DHT22;7678;50.058;8.306;2023-10-19T08:19:00;11.80;99.90
15156;DHT22;7678;50.058;8.306;2023-10-19T08:21:29;11.90;99.90
15156;DHT22;7678;50.058;8.306;2023-10-19T08:24:01;12.00;99.90
15156;DHT22;7678;50.058;8.306;2023-10-19T08:26:32;12.00;99.90
15156;DHT22;7678;50.058;8.306;2023-10-19T08:29:03;12.20;99.90
15156;DHT22;7678;50.058;8.306;2023-10-19T08:31:40;12.20;99.90
15156;DHT22;7678;50.058;8.306;2023-10-19T08:34:09;12.20;99.90
15156;DHT22;7678;50.058;8.306;2023-10-19T08:36:42;12.20;99.90
15156;DHT22;7678;50.058;8.306;2023-10-19T08:39:27;12.20;99.90
15156;DHT22;7678;50.058;8.306;2023-10-19T08:44:48;12.20;99.90
15156;DHT22;7678;50.058;8.306;2023-10-19T08:47:17;12.30;99.90
15156;DHT22;7678;50.058;8.306;2023-10-19T08:49:53;12.50;99.90
15156;DHT22;7678;50.058;8.306;2023-10-19T08:52:24;12.50;99.90
15156;DHT22;7678;50.058;8.306;2023-10-19T08:54:59;12.50;99.90
15156;DHT22;7678;50.058;8.306;2023-10-19T08:57:29;12.60;99.90
15156;DHT22;7678;50.058;8.306;2023-10-19T08:59:57;12.60;99.90
15156;DHT22;7678;50.058;8.306;2023-10-19T09:02:32;12.50;99.90
15156;DHT22;7678;50.058;8.306;2023-10-19T09:05:06;12.60;99.90
15156;DHT22;7678;50.058;8.306;2023-10-19T09:07:36;12.50;99.90
15156;DHT22;7678;50.058;8.306;2023-10-19T09:10:20;12.50;99.90
15156;DHT22;7678;50.058;8.306;2023-10-19T09:13:04;12.60;99.90
15156;DHT22;7678;50.058;8.306;2023-10-19T09:15:48;12.70;99.90
15156;DHT22;7678;50.058;8.306;2023-10-19T09:18:17;12.80;99.90
15156;DHT22;7678;50.058;8.306;2023-10-19T09:20:52;12.80;99.90
15156;DHT22;7678;50.058;8.306;2023-10-19T09:23:21;12.90;99.90
15156;DHT22;7678;50.058;8.306;2023-10-19T09:25:55;12.90;99.90
15156;DHT22;7678;50.058;8.306;2023-10-19T09:28:25;13.10;99.90
15156;DHT22;7678;50.058;8.306;2023-10-19T09:31:00;13.00;99.90
15156;DHT22;7678;50.058;8.306;2023-10-19T09:33:35;12.90;99.90
15156;DHT22;7678;50.058;8.306;2023-10-19T09:36:06;13.00;99.90
15156;DHT22;7678;50.058;8.306;2023-10-19T09:38:45;13.20;99.90
15156;DHT22;7678;50.058;8.306;2023-10-19T09:41:22;13.20;99.90
15156;DHT22;7678;50.058;8.306;2023-10-19T09:44:02;13.30;99.90
15156;DHT22;7678;50.058;8.306;2023-10-19T09:46:55;13.20;99.90
15156;DHT22;7678;50.058;8.306;2023-10-19T09:49:34;13.20;99.90
15156;DHT22;7678;50.058;8.306;2023-10-19T09:52:10;13.40;99.90
15156;DHT22;7678;50.058;8.306;2023-10-19T09:54:50;13.50;99.90
15156;DHT22;7678;50.058;8.306;2023-10-19T09:57:28;13.70;99.90
15156;DHT22;7678;50.058;8.306;2023-10-19T10:00:14;13.30;99.90
15156;DHT22;7678;50.058;8.306;2023-10-19T10:02:51;13.40;99.90
15156;DHT22;7678;50.058;8.306;2023-10-19T10:05:46;13.60;99.90
15156;DHT22;7678;50.058;8.306;2023-10-19T10:08:36;13.50;99.90
15156;DHT22;7678;50.058;8.306;2023-10-19T10:11:25;13.50;99.90
15156;DHT22;7678;50.058;8.306;2023-10-19T10:13:58;13.60;99.90
15156;DHT22;7678;50.058;8.306;2023-10-19T10:16:28;13.60;99.90
15156;DHT22;7678;50.058;8.306;2023-10-19T10:19:04;13.60;99.90
15156;DHT22;7678;50.058;8.306;2023-10-19T10:21:34;13.50;99.90
15156;DHT22;7678;50.058;8.306;2023-10-19T10:24:18;13.60;99.90
15156;DHT22;7678;50.058;8.306;2023-10-19T10:26:59;13.70;99.90
15156;DHT22;7678;50.058;8.306;2023-10-19T10:29:31;13.70;99.90
15156;DHT22;7678;50.058;8.306;2023-10-19T10:32:01;13.70;99.90
15156;DHT22;7678;50.058;8.306;2023-10-19T10:34:46;13.60;99.90
15156;DHT22;7678;50.058;8.306;2023-10-19T10:37:19;13.50;99.90
15156;DHT22;7678;50.058;8.306;2023-10-19T10:39:47;13.70;99.90
15156;DHT22;7678;50.058;8.306;2023-10-19T10:42:17;13.90;99.90
15156;DHT22;7678;50.058;8.306;2023-10-19T10:44:48;14.10;99.90
15156;DHT22;7678;50.058;8.306;2023-10-19T10:47:21;14.00;99.90
15156;DHT22;7678;50.058;8.306;2023-10-19T10:49:56;14.10;99.90
15156;DHT22;7678;50.058;8.306;2023-10-19T10:52:26;14.20;99.90
15156;DHT22;7678;50.058;8.306;2023-10-19T10:54:57;14.10;99.90
15156;DHT22;7678;50.058;8.306;2023-10-19T10:57:32;14.10;99.90
15156;DHT22;7678;50.058;8.306;2023-10-19T11:00:07;14.00;99.90
15156;DHT22;7678;50.058;8.306;2023-10-19T11:02:37;14.00;99.90
15156;DHT22;7678;50.058;8.306;2023-10-19T11:05:11;14.00;99.90
15156;DHT22;7678;50.058;8.306;2023-10-19T11:08:11;14.00;99.90
15156;DHT22;7678;50.058;8.306;2023-10-19T11:10:44;14.10;99.90
15156;DHT22;7678;50.058;8.306;2023-10-19T11:13:18;14.10;99.90
15156;DHT22;7678;50.058;8.306;2023-10-19T11:15:53;14.10;99.90
15156;DHT22;7678;50.058;8.306;2023-10-19T11:18:39;14.20;99.90
15156;DHT22;7678;50.058;8.306;2023-10-19T11:21:16;14.30;99.90
15156;DHT22;7678;50.058;8.306;2023-10-19T11:23:50;14.40;99.90
15156;DHT22;7678;50.058;8.306;2023-10-19T11:26:25;14.30;99.90
15156;DHT22;7678;50.058;8.306;2023-10-19T11:28:57;14.20;99.90
15156;DHT22;7678;50.058;8.306;2023-10-19T11:31:29;14.20;99.90
15156;DHT22;7678;50.058;8.306;2023-10-19T11:34:08;14.30;99.90
15156;DHT22;7678;50.058;8.306;2023-10-19T11:36:37;14.30;99.90
15156;DHT22;7678;50.058;8.306;2023-10-19T11:39:18;14.20;99.90
15156;DHT22;7678;50.058;8.306;2023-10-19T11:41:50;14.30;99.90
15156;DHT22;7678;50.058;8.306;2023-10-19T11:44:21;14.30;99.90
15156;DHT22;7678;50.058;8.306;2023-10-19T11:46:52;14.40;99.90
15156;DHT22;7678;50.058;8.306;2023-10-19T11:49:25;14.50;99.90
15156;DHT22;7678;50.058;8.306;2023-10-19T11:51:56;14.60;99.90
15156;DHT22;7678;50.058;8.306;2023-10-19T11:54:38;14.70;99.90
15156;DHT22;7678;50.058;8.306;2023-10-19T11:57:12;14.70;99.90
15156;DHT22;7678;50.058;8.306;2023-10-19T11:59:44;14.80;99.90
15156;DHT22;7678;50.058;8.306;2023-10-19T12:02:16;14.80;99.90
15156;DHT22;7678;50.058;8.306;2023-10-19T12:04:47;14.90;99.90
15156;DHT22;7678;50.058;8.306;2023-10-19T12:07:18;15.00;99.90
15156;DHT22;7678;50.058;8.306;2023-10-19T12:09:46;15.00;99.90
15156;DHT22;7678;50.058;8.306;2023-10-19T12:12:21;15.10;99.90
15156;DHT22;7678;50.058;8.306;2023-10-19T12:14:51;15.10;99.90
15156;DHT22;7678;50.058;8.306;2023-10-19T12:17:26;15.00;99.90
15156;DHT22;7678;50.058;8.306;2023-10-19T12:19:55;15.00;99.90
15156;DHT22;7678;50.058;8.306;2023-10-19T12:22:24;15.10;99.90
15156;DHT22;7678;50.058;8.306;2023-10-19T12:24:56;15.10;99.90
15156;DHT22;7678;50.058;8.306;2023-10-19T12:27:31;15.00;99.90
15156;DHT22;7678;50.058;8.306;2023-10-19T12:30:02;15.00;99.90
15156;DHT22;7678;50.058;8.306;2023-10-19T12:32:41;14.90;99.90
15156;DHT22;7678;50.058;8.306;2023-10-19T12:35:11;14.80;99.90
15156;DHT22;7678;50.058;8.306;2023-10-19T12:37:49;14.80;99.90
15156;DHT22;7678;50.058;8.306;2023-10-19T12:40:19;14.90;99.90
15156;DHT22;7678;50.058;8.306;2023-10-19T12:43:12;14.90;99.90
15156;DHT22;7678;50.058;8.306;2023-10-19T12:45:42;14.90;99.90
15156;DHT22;7678;50.058;8.306;2023-10-19T12:48:21;14.90;99.90
15156;DHT22;7678;50.058;8.306;2023-10-19T12:50:54;14.80;99.90
15156;DHT22;7678;50.058;8.306;2023-10-19T12:53:36;14.90;99.90
15156;DHT22;7678;50.058;8.306;2023-10-19T12:56:06;15.00;99.90
15156;DHT22;7678;50.058;8.306;2023-10-19T12:58:38;15.00;99.90
15156;DHT22;7678;50.058;8.306;2023-10-19T13:01:08;14.90;99.90
15156;DHT22;7678;50.058;8.306;2023-10-19T13:04:07;15.00;99.90
15156;DHT22;7678;50.058;8.306;2023-10-19T13:07:07;15.10;99.90
15156;DHT22;7678;50.058;8.306;2023-10-19T13:09:37;15.20;99.90
15156;DHT22;7678;50.058;8.306;2023-10-19T13:12:06;15.10;99.90
15156;DHT22;7678;50.058;8.306;2023-10-19T13:14:40;15.10;99.90
15156;DHT22;7678;50.058;8.306;2023-10-19T13:17:15;15.20;99.90
15156;DHT22;7678;50.058;8.306;2023-10-19T13:19:59;15.30;99.90
15156;DHT22;7678;50.058;8.306;2023-10-19T13:22:42;15.40;99.90
15156;DHT22;7678;50.058;8.306;2023-10-19T13:25:15;15.40;99.90
15156;DHT22;7678;50.058;8.306;2023-10-19T13:28:07;15.40;99.90
15156;DHT22;7678;50.058;8.306;2023-10-19T13:30:38;15.30;99.90
15156;DHT22;7678;50.058;8.306;2023-10-19T13:33:10;15.30;99.90
15156;DHT22;7678;50.058;8.306;2023-10-19T13:35:50;15.30;99.90
15156;DHT22;7678;50.058;8.306;2023-10-19T13:38:20;15.20;99.90
15156;DHT22;7678;50.058;8.306;2023-10-19T13:40:48;15.20;99.90
15156;DHT22;7678;50.058;8.306;2023-10-19T13:43:20;15.30;99.90
15156;DHT22;7678;50.058;8.306;2023-10-19T13:45:51;15.40;99.90
15156;DHT22;7678;50.058;8.306;2023-10-19T13:48:23;15.50;99.90
15156;DHT22;7678;50.058;8.306;2023-10-19T13:50:53;15.50;99.90
15156;DHT22;7678;50.058;8.306;2023-10-19T13:53:27;15.50;99.90
15156;DHT22;7678;50.058;8.306;2023-10-19T13:56:00;15.40;99.90
15156;DHT22;7678;50.058;8.306;2023-10-19T13:58:30;15.40;99.90
15156;DHT22;7678;50.058;8.306;2023-10-19T14:01:16;15.30;99.90
15156;DHT22;7678;50.058;8.306;2023-10-19T14:03:51;15.30;99.90
15156;DHT22;7678;50.058;8.306;2023-10-19T14:06:23;15.30;99.90
15156;DHT22;7678;50.058;8.306;2023-10-19T14:08:53;15.30;99.90
15156;DHT22;7678;50.058;8.306;2023-10-19T14:11:25;15.30;99.90
15156;DHT22;7678;50.058;8.306;2023-10-19T14:13:57;15.30;99.90
15156;DHT22;7678;50.058;8.306;2023-10-19T14:16:25;15.30;99.90
15156;DHT22;7678;50.058;8.306;2023-10-19T14:18:53;15.30;99.90
15156;DHT22;7678;50.058;8.306;2023-10-19T14:21:24;15.40;99.90
15156;DHT22;7678;50.058;8.306;2023-10-19T14:24:03;15.40;99.90
15156;DHT22;7678;50.058;8.306;2023-10-19T14:26:35;15.40;99.90
15156;DHT22;7678;50.058;8.306;2023-10-19T14:29:08;15.30;99.90
15156;DHT22;7678;50.058;8.306;2023-10-19T14:31:45;15.30;99.90
15156;DHT22;7678;50.058;8.306;2023-10-19T14:34:15;15.30;99.90
15156;DHT22;7678;50.058;8.306;2023-10-19T14:36:48;15.30;99.90
15156;DHT22;7678;50.058;8.306;2023-10-19T14:39:23;15.30;99.90
15156;DHT22;7678;50.058;8.306;2023-10-19T14:41:51;15.40;99.90
15156;DHT22;7678;50.058;8.306;2023-10-19T14:44:20;15.30;99.90
15156;DHT22;7678;50.058;8.306;2023-10-19T14:46:51;15.30;99.90
15156;DHT22;7678;50.058;8.306;2023-10-19T14:49:21;15.30;99.90
15156;DHT22;7678;50.058;8.306;2023-10-19T14:52:09;15.20;99.90
15156;DHT22;7678;50.058;8.306;2023-10-19T14:54:37;15.20;99.90
15156;DHT22;7678;50.058;8.306;2023-10-19T14:57:17;15.20;99.90
15156;DHT22;7678;50.058;8.306;2023-10-19T14:59:46;15.10;99.90
15156;DHT22;7678;50.058;8.306;2023-10-19T15:02:15;15.10;99.90
15156;DHT22;7678;50.058;8.306;2023-10-19T15:04:45;15.00;99.90
15156;DHT22;7678;50.058;8.306;2023-10-19T15:07:16;14.90;99.90
15156;DHT22;7678;50.058;8.306;2023-10-19T15:09:46;14.90;99.90
15156;DHT22;7678;50.058;8.306;2023-10-19T15:12:16;14.90;99.90
15156;DHT22;7678;50.058;8.306;2023-10-19T15:14:45;14.90;99.90
15156;DHT22;7678;50.058;8.306;2023-10-19T15:17:13;15.00;99.90
15156;DHT22;7678;50.058;8.306;2023-10-19T15:19:51;15.00;99.90
15156;DHT22;7678;50.058;8.306;2023-10-19T15:22:24;15.00;99.90
15156;DHT22;7678;50.058;8.306;2023-10-19T15:24:54;15.10;99.90
15156;DHT22;7678;50.058;8.306;2023-10-19T15:27:30;15.10;99.90
15156;DHT22;7678;50.058;8.306;2023-10-19T15:29:59;15.10;99.90
15156;DHT22;7678;50.058;8.306;2023-10-19T15:32:28;15.10;99.90
15156;DHT22;7678;50.058;8.306;2023-10-19T15:34:58;15.00;99.90
15156;DHT22;7678;50.058;8.306;2023-10-19T15:37:27;15.00;99.90
15156;DHT22;7678;50.058;8.306;2023-10-19T15:43:01;15.10;99.90
15156;DHT22;7678;50.058;8.306;2023-10-19T15:45:39;15.30;99.90
15156;DHT22;7678;50.058;8.306;2023-10-19T15:48:12;15.40;99.90
15156;DHT22;7678;50.058;8.306;2023-10-19T15:50:41;15.40;99.90
15156;DHT22;7678;50.058;8.306;2023-10-19T15:53:17;15.40;99.90
15156;DHT22;7678;50.058;8.306;2023-10-19T15:55:48;15.30;99.90
15156;DHT22;7678;50.058;8.306;2023-10-19T15:58:18;15.30;99.90
15156;DHT22;7678;50.058;8.306;2023-10-19T16:00:48;15.20;99.90
15156;DHT22;7678;50.058;8.306;2023-10-19T16:03:16;15.20;99.90
15156;DHT22;7678;50.058;8.306;2023-10-19T16:05:45;15.10;99.90
15156;DHT22;7678;50.058;8.306;2023-10-19T16:08:18;15.10;99.90
15156;DHT22;7678;50.058;8.306;2023-10-19T16:10:48;15.10;99.90
15156;DHT22;7678;50.058;8.306;2023-10-19T16:13:23;15.00;99.90
15156;DHT22;7678;50.058;8.306;2023-10-19T16:15:52;15.00;99.90
15156;DHT22;7678;50.058;8.306;2023-10-19T16:18:22;15.00;99.90
15156;DHT22;7678;50.058;8.306;2023-10-19T16:20:50;15.00;99.90
15156;DHT22;7678;50.058;8.306;2023-10-19T16:23:20;15.00;99.90
15156;DHT22;7678;50.058;8.306;2023-10-19T16:25:57;14.90;99.90
15156;DHT22;7678;50.058;8.306;2023-10-19T16:28:31;14.90;99.90
15156;DHT22;7678;50.058;8.306;2023-10-19T16:31:03;14.80;99.90
15156;DHT22;7678;50.058;8.306;2023-10-19T16:33:33;14.80;99.90
15156;DHT22;7678;50.058;8.306;2023-10-19T16:36:02;14.70;99.90
15156;DHT22;7678;50.058;8.306;2023-10-19T16:38:33;14.70;99.90